Terminal Aerodrome Forecast
Issued by NWS

Home | Current Version | Previous Version | Text Only | Print | Product List | Glossary On
Versions: 1 2 3 4 5 6 7 8 9 10 11 12 13
000
FTUS45 KREV 300531
TAFMMH
TAF
KMMH 300531Z 3006/3106 VRB03KT P6SM SKC
     FM302000 10010KT P6SM SCT120
     FM302300 16011G16KT P6SM SCT060 BKN120
     FM310200 29011KT P6SM SCT060 BKN120=

USA.gov is the U.S. government's official web portal to all federal, state and local government web resources and services.